Time;durP1;ratioP1;P1;durP2;ratioP2;P2;SDS_P1;SDS_P2;PMS_P1;PMS_P2;Temp;Humidity;BMP_temperature;BMP_pressure;BME280_temperature;BME280_humidity;BME280_pressure;Samples;Min_cycle;Max_cycle;Signal;HPM_P1;HPM_P2
2022/11/26 00:00:54;;;;;;;;;60.33;48.00;;;;;10.40;63.64;99311.47;6165661;28;96374;-62
2022/11/26 00:04:02;;;;;;;;;57.00;46.00;;;;;10.36;63.80;99304.81;6179152;28;97808;-62
2022/11/26 00:07:05;;;;;;;;;60.00;47.60;;;;;10.24;63.87;99309.22;6134129;28;98121;-62
2022/11/26 00:10:18;;;;;;;;;60.80;48.00;;;;;10.14;64.25;99300.69;6181457;28;96629;-62
2022/11/26 00:13:24;;;;;;;;;59.20;47.00;;;;;10.13;64.54;99312.50;6186895;28;96688;-61
2022/11/26 00:16:30;;;;;;;;;60.00;47.00;;;;;10.12;64.72;99313.53;6189088;28;96365;-62
2022/11/26 00:19:34;;;;;;;;;56.80;45.20;;;;;10.12;64.70;99316.22;6171965;28;96266;-61
2022/11/26 00:22:40;;;;;;;;;56.40;44.40;;;;;10.11;64.79;99305.69;6168783;28;96453;-62
2022/11/26 00:25:46;;;;;;;;;57.00;46.00;;;;;10.17;64.48;99311.06;6183515;28;96990;-62
2022/11/26 00:28:53;;;;;;;;;58.75;47.00;;;;;10.18;64.35;99322.69;6186000;28;96919;-61
2022/11/26 00:31:56;;;;;;;;;58.00;46.60;;;;;10.18;64.19;99317.28;6178797;28;96790;-62
2022/11/26 00:35:02;;;;;;;;;57.80;47.00;;;;;10.18;64.09;99322.69;6159471;28;96470;-61
2022/11/26 00:38:05;;;;;;;;;57.20;46.00;;;;;10.19;64.08;99321.66;6182767;28;96441;-61
2022/11/26 00:41:16;;;;;;;;;54.00;44.00;;;;;10.23;63.70;99325.59;6184121;28;96354;-61
2022/11/26 00:44:22;;;;;;;;;61.00;48.00;;;;;10.21;63.98;99322.28;6187820;28;98221;-61
2022/11/26 00:47:25;;;;;;;;;57.00;45.60;;;;;10.24;63.81;99324.56;6186144;28;96537;-62
2022/11/26 00:50:36;;;;;;;;;60.00;48.00;;;;;10.27;64.02;99330.34;6182935;28;96466;-61
2022/11/26 00:53:40;;;;;;;;;52.75;43.25;;;;;10.27;63.73;99324.94;6190509;28;96353;-61
2022/11/26 00:56:44;;;;;;;;;52.20;42.40;;;;;10.24;63.99;99338.84;6190988;28;96422;-61
2022/11/26 00:59:47;;;;;;;;;55.60;44.00;;;;;10.28;63.98;99334.69;6165255;28;97327;-62
2022/11/26 01:02:51;;;;;;;;;55.40;44.00;;;;;10.29;63.76;99340.94;6171718;28;96601;-61
2022/11/26 01:05:58;;;;;;;;;60.00;47.60;;;;;10.31;63.69;99336.16;6181780;28;97461;-62
2022/11/26 01:09:04;;;;;;;;;58.00;44.60;;;;;10.29;63.56;99340.94;6185376;28;96988;-61
2022/11/26 01:12:13;;;;;;;;;57.60;46.20;;;;;10.24;63.15;99336.16;6182478;28;97196;-62
2022/11/26 01:15:18;;;;;;;;;59.50;48.00;;;;;10.34;63.39;99341.13;6177037;28;96467;-63
2022/11/26 01:18:23;;;;;;;;;55.00;44.00;;;;;10.41;63.05;99345.47;6179782;28;96970;-62
2022/11/26 01:21:30;;;;;;;;;54.00;44.00;;;;;10.41;62.94;99342.75;6174482;28;96467;-61
2022/11/26 01:24:33;;;;;;;;;52.40;44.20;;;;;10.44;62.95;99346.94;6187108;28;96707;-61
2022/11/26 01:27:36;;;;;;;;;54.80;44.80;;;;;10.42;62.75;99339.03;6184208;28;96572;-61
2022/11/26 01:30:41;;;;;;;;;57.00;46.00;;;;;10.42;62.72;99349.81;6166065;28;96568;-62
2022/11/26 01:33:44;;;;;;;;;51.60;41.60;;;;;10.45;62.67;99347.75;6181546;28;96869;-61
2022/11/26 01:36:49;;;;;;;;;55.40;44.00;;;;;10.43;62.41;99356.88;6179016;28;96441;-61
2022/11/26 01:39:52;;;;;;;;;51.75;41.75;;;;;10.41;62.21;99348.16;6179781;28;96541;-63
2022/11/26 01:43:00;;;;;;;;;49.50;40.75;;;;;10.43;62.43;99354.19;6171902;28;96253;-63
2022/11/26 01:46:03;;;;;;;;;50.00;41.00;;;;;10.46;61.84;99357.50;6169144;28;96737;-62
2022/11/26 01:49:18;;;;;;;;;46.20;38.00;;;;;10.45;61.88;99347.75;6187283;28;96921;-61
2022/11/26 01:52:25;;;;;;;;;46.20;38.20;;;;;10.47;61.84;99356.44;6184259;28;96654;-62
2022/11/26 01:55:35;;;;;;;;;46.50;38.00;;;;;10.50;61.44;99356.88;6151162;28;96675;-61
2022/11/26 01:58:43;;;;;;;;;43.40;36.40;;;;;10.55;61.22;99365.16;6179422;28;96582;-61
2022/11/26 02:01:47;;;;;;;;;47.00;39.00;;;;;10.59;61.16;99362.88;6168492;28;96638;-61
2022/11/26 02:04:58;;;;;;;;;43.60;36.00;;;;;10.60;61.30;99367.22;6186214;28;96908;-61
2022/11/26 02:08:03;;;;;;;;;46.60;38.60;;;;;10.60;61.46;99346.50;6181204;28;96286;-62
2022/11/26 02:11:15;;;;;;;;;47.80;38.80;;;;;10.63;61.77;99362.22;6153670;28;96888;-61
2022/11/26 02:14:22;;;;;;;;;50.40;41.20;;;;;10.63;61.96;99361.41;6186595;28;96398;-62
2022/11/26 02:17:36;;;;;;;;;48.40;38.60;;;;;10.61;61.99;99361.59;6181802;28;96299;-61
2022/11/26 02:20:52;;;;;;;;;46.40;37.40;;;;;10.56;61.94;99363.28;6171304;28;96552;-61
2022/11/26 02:24:34;;;;;;;;;49.60;40.00;;;;;10.53;61.93;99369.09;6166218;28;97020;-62
2022/11/26 02:28:20;;;;;;;;;50.25;39.75;;;;;10.53;61.48;99374.47;6179942;28;96641;-61
2022/11/26 02:31:34;;;;;;;;;46.50;38.00;;;;;10.53;61.66;99375.31;6194520;28;97142;-61
2022/11/26 02:34:43;;;;;;;;;48.20;39.60;;;;;10.55;61.33;99370.56;6197439;28;96424;-62
2022/11/26 02:37:51;;;;;;;;;49.00;40.60;;;;;10.42;61.32;99355.22;6195125;28;96229;-62
2022/11/26 02:40:54;;;;;;;;;47.40;40.00;;;;;10.51;61.08;99374.69;6198428;28;96312;-62
2022/11/26 02:43:58;;;;;;;;;47.00;38.40;;;;;10.48;61.11;99376.97;6194594;28;96388;-62
2022/11/26 02:47:09;;;;;;;;;46.50;38.00;;;;;10.41;61.25;99375.09;6186192;28;96212;-61
2022/11/26 02:50:18;;;;;;;;;46.80;37.80;;;;;10.42;61.29;99376.78;6181035;28;97809;-61
2022/11/26 02:53:25;;;;;;;;;51.00;41.00;;;;;10.37;61.31;99378.44;6179465;28;96455;-61
2022/11/26 02:56:30;;;;;;;;;47.00;39.80;;;;;10.29;61.53;99379.50;6185721;28;96312;-61
2022/11/26 02:59:34;;;;;;;;;45.50;39.00;;;;;10.24;61.66;99381.13;6186105;28;96551;-61
2022/11/26 03:02:45;;;;;;;;;49.60;39.80;;;;;10.15;61.85;99385.06;6184400;28;96855;-61
2022/11/26 03:05:50;;;;;;;;;54.60;44.00;;;;;10.14;61.78;99380.69;6185933;28;96479;-63
2022/11/26 03:08:55;;;;;;;;;51.40;41.00;;;;;10.04;61.98;99385.66;6184334;28;96861;-63
2022/11/26 03:11:58;;;;;;;;;49.60;40.80;;;;;10.00;62.29;99393.31;6183999;28;96590;-63
2022/11/26 03:15:02;;;;;;;;;53.25;44.00;;;;;10.04;62.16;99391.03;6185223;28;97019;-63
2022/11/26 03:18:07;;;;;;;;;54.20;44.60;;;;;10.02;62.16;99393.13;6179642;28;96332;-61
2022/11/26 03:21:11;;;;;;;;;51.00;41.80;;;;;10.05;61.89;99392.72;6184991;28;96375;-62
2022/11/26 03:24:15;;;;;;;;;53.00;43.20;;;;;10.11;61.98;99402.66;6185752;28;96797;-62
2022/11/26 03:27:18;;;;;;;;;50.00;41.20;;;;;10.04;61.83;99389.19;6175486;28;96156;-62
2022/11/26 03:30:21;;;;;;;;;54.40;44.40;;;;;10.12;61.76;99396.22;6162871;28;96715;-62
2022/11/26 03:33:26;;;;;;;;;53.00;43.00;;;;;10.18;61.54;99392.75;6185636;28;96827;-61
2022/11/26 03:36:29;;;;;;;;;49.80;41.80;;;;;10.25;61.36;99393.59;6177521;28;96291;-61
2022/11/26 03:39:32;;;;;;;;;50.00;40.00;;;;;10.28;61.22;99398.53;6156815;28;97292;-61
2022/11/26 03:42:36;;;;;;;;;49.00;39.00;;;;;10.26;61.11;99398.75;6182732;28;96903;-62
2022/11/26 03:45:40;;;;;;;;;52.50;43.00;;;;;10.27;60.91;99396.88;6180638;28;96455;-62
2022/11/26 03:48:44;;;;;;;;;47.00;39.00;;;;;10.31;60.90;99403.53;6186216;28;96537;-62
2022/11/26 03:51:48;;;;;;;;;46.60;39.00;;;;;10.29;60.70;99392.97;6189831;28;96307;-62
2022/11/26 03:54:51;;;;;;;;;47.00;39.40;;;;;10.23;60.91;99391.09;6183728;28;96545;-62
2022/11/26 03:57:54;;;;;;;;;45.00;36.00;;;;;10.25;60.86;99405.19;6180033;28;96267;-62
2022/11/26 04:00:57;;;;;;;;;46.40;38.40;;;;;10.22;61.24;99413.66;6158639;28;96514;-61
2022/11/26 04:04:04;;;;;;;;;49.00;41.00;;;;;10.15;61.56;99410.13;6189137;28;96257;-62
2022/11/26 04:07:07;;;;;;;;;47.25;39.75;;;;;10.16;61.61;99413.69;6186868;28;96491;-62
2022/11/26 04:10:11;;;;;;;;;48.00;40.00;;;;;10.13;61.75;99412.19;6198399;28;96955;-62
2022/11/26 04:13:14;;;;;;;;;49.40;40.00;;;;;10.15;61.56;99410.13;6190887;28;96581;-62
2022/11/26 04:16:17;;;;;;;;;53.00;43.40;;;;;10.11;61.66;99414.28;6187245;28;96650;-62
2022/11/26 04:19:22;;;;;;;;;49.00;40.00;;;;;10.08;61.87;99406.59;6190871;28;96679;-62
2022/11/26 04:22:25;;;;;;;;;49.00;41.00;;;;;10.09;62.05;99420.88;6187786;28;96299;-62
2022/11/26 04:25:28;;;;;;;;;52.00;42.20;;;;;10.12;61.66;99417.78;6198248;28;96470;-62
2022/11/26 04:28:32;;;;;;;;;56.00;45.60;;;;;10.10;61.89;99430.63;6196870;28;96303;-62
2022/11/26 04:31:35;;;;;;;;;53.00;44.00;;;;;10.04;62.00;99418.81;6169302;28;96647;-62
2022/11/26 04:34:40;;;;;;;;;56.25;45.00;;;;;10.05;62.02;99422.34;6171339;28;96986;-62
2022/11/26 04:37:44;;;;;;;;;52.60;44.60;;;;;10.09;61.97;99421.72;6186234;28;97604;-62
2022/11/26 04:40:48;;;;;;;;;59.00;47.25;;;;;10.14;61.76;99421.94;6184118;28;96678;-62
2022/11/26 04:43:51;;;;;;;;;51.20;42.40;;;;;10.07;61.35;99398.72;6184060;28;96369;-62
2022/11/26 04:46:54;;;;;;;;;54.40;44.00;;;;;10.20;61.30;99421.16;6185585;28;96897;-63
2022/11/26 04:49:59;;;;;;;;;49.80;40.80;;;;;10.21;61.25;99422.81;6175484;28;96778;-63
2022/11/26 04:53:03;;;;;;;;;45.20;38.20;;;;;10.24;61.08;99432.34;6150495;28;96667;-61
2022/11/26 04:56:07;;;;;;;;;45.40;36.60;;;;;10.26;60.72;99435.66;6181765;28;96482;-61
2022/11/26 04:59:10;;;;;;;;;43.00;36.00;;;;;10.23;60.79;99431.50;6182496;28;96453;-61
2022/11/26 05:02:13;;;;;;;;;43.00;35.00;;;;;10.16;60.82;99441.47;6184815;28;97226;-62
2022/11/26 05:05:18;;;;;;;;;41.80;34.80;;;;;10.13;60.88;99449.06;6170507;28;97189;-63
2022/11/26 05:08:21;;;;;;;;;45.40;36.60;;;;;10.05;61.12;99447.41;6184322;28;96569;-62
2022/11/26 05:11:25;;;;;;;;;32.00;29.60;;;;;10.00;61.13;99447.19;6186077;28;97404;-61
2022/11/26 05:14:28;;;;;;;;;36.50;33.00;;;;;10.02;60.95;99453.19;6185965;28;96320;-61
2022/11/26 05:17:31;;;;;;;;;35.60;30.40;;;;;9.97;60.96;99450.28;6186280;28;96474;-61
2022/11/26 05:20:37;;;;;;;;;34.00;30.60;;;;;9.97;60.87;99456.50;6177891;28;96384;-61
2022/11/26 05:23:40;;;;;;;;;39.00;32.00;;;;;9.95;60.93;99450.50;6184622;28;96514;-61
2022/11/26 05:26:43;;;;;;;;;39.00;33.50;;;;;9.95;61.17;99457.75;6178864;28;96525;-61
2022/11/26 05:29:47;;;;;;;;;35.00;31.40;;;;;9.94;61.18;99462.31;6183619;28;96966;-62
2022/11/26 05:32:50;;;;;;;;;32.40;30.60;;;;;9.96;61.04;99470.19;6180582;28;97115;-62
2022/11/26 05:35:55;;;;;;;;;40.00;35.00;;;;;10.00;61.11;99463.38;6179467;28;97204;-61
2022/11/26 05:38:58;;;;;;;;;40.60;35.60;;;;;9.93;61.06;99468.72;6181902;28;97856;-62
2022/11/26 05:42:01;;;;;;;;;48.50;36.50;;;;;9.91;61.09;99472.66;6182719;28;96326;-61
2022/11/26 05:45:11;;;;;;;;;49.40;40.00;;;;;9.80;61.33;99473.25;6175665;28;96290;-61
2022/11/26 05:48:14;;;;;;;;;51.60;42.00;;;;;9.79;61.35;99479.66;6177190;28;96939;-62
2022/11/26 05:51:19;;;;;;;;;57.40;44.60;;;;;9.72;61.37;99486.91;6176434;28;96960;-62
2022/11/26 05:54:23;;;;;;;;;57.40;46.00;;;;;9.62;61.84;99476.50;6187128;28;96329;-62
2022/11/26 05:57:26;;;;;;;;;57.20;46.40;;;;;9.58;61.87;99491.38;6178562;28;96274;-62
2022/11/26 06:00:29;;;;;;;;;57.00;46.00;;;;;9.57;61.69;99487.88;6184708;28;97573;-61
2022/11/26 06:03:33;;;;;;;;;59.60;46.20;;;;;9.52;62.03;99492.19;6165620;28;96459;-61
2022/11/26 06:06:37;;;;;;;;;60.25;48.00;;;;;9.46;62.05;99484.91;6177685;28;96368;-61
2022/11/26 06:09:41;;;;;;;;;56.40;46.00;;;;;9.42;62.22;99494.44;6170920;28;96823;-61
2022/11/26 06:12:44;;;;;;;;;59.50;47.00;;;;;9.39;62.00;99502.88;6180597;28;96662;-63
2022/11/26 06:15:48;;;;;;;;;57.50;46.00;;;;;9.32;62.28;99500.19;6184810;28;96373;-61
2022/11/26 06:18:51;;;;;;;;;53.00;44.00;;;;;9.26;62.28;99502.81;6172938;28;96858;-62
2022/11/26 06:21:56;;;;;;;;;48.60;40.00;;;;;9.23;62.22;99497.84;6186441;28;97481;-61
2022/11/26 06:24:59;;;;;;;;;50.40;42.20;;;;;9.17;62.48;99510.22;6186843;28;96335;-62
2022/11/26 06:28:02;;;;;;;;;49.00;40.00;;;;;9.12;62.72;99504.59;6184402;28;96745;-62
2022/11/26 06:31:08;;;;;;;;;49.00;40.60;;;;;9.16;62.59;99518.47;6164457;28;97417;-61
2022/11/26 06:34:11;;;;;;;;;43.60;36.00;;;;;9.12;62.90;99518.88;6168205;28;96861;-61
2022/11/26 06:37:16;;;;;;;;;39.60;35.00;;;;;9.19;63.20;99515.41;6186852;28;96510;-61
2022/11/26 06:40:20;;;;;;;;;34.00;31.00;;;;;9.33;62.93;99528.75;6185278;28;96619;-62
2022/11/26 06:43:24;;;;;;;;;37.80;32.40;;;;;9.49;62.70;99525.72;6183737;28;96511;-62
2022/11/26 06:46:28;;;;;;;;;31.00;29.40;;;;;9.76;61.79;99524.00;6166633;28;96477;-61
2022/11/26 06:49:31;;;;;;;;;33.67;30.67;;;;;10.14;60.78;99527.03;6176190;28;96240;-61
2022/11/26 06:52:36;;;;;;;;;43.40;35.00;;;;;10.38;59.92;99522.94;6184529;28;96504;-61
2022/11/26 06:55:39;;;;;;;;;34.00;30.00;;;;;10.90;58.36;99526.75;6168460;28;96429;-61
2022/11/26 06:58:45;;;;;;;;;31.40;29.40;;;;;11.61;56.67;99522.22;6179631;28;96733;-61
2022/11/26 07:01:48;;;;;;;;;31.00;27.25;;;;;12.96;53.10;99528.09;6166931;28;96398;-61
2022/11/26 07:04:52;;;;;;;;;24.00;21.50;;;;;14.69;48.44;99520.44;6181833;28;96341;-61
2022/11/26 07:07:56;;;;;;;;;25.00;24.00;;;;;16.54;44.02;99523.94;6184670;28;96612;-63
2022/11/26 07:11:02;;;;;;;;;27.00;23.00;;;;;16.80;42.28;99531.53;6173321;28;96712;-63
2022/11/26 07:14:06;;;;;;;;;24.00;21.40;;;;;18.25;39.95;99535.78;6180066;28;97041;-63
2022/11/26 07:17:09;;;;;;;;;22.00;21.00;;;;;19.90;36.68;99544.81;6180685;28;96428;-62
2022/11/26 07:20:14;;;;;;;;;20.20;19.00;;;;;20.81;34.56;99542.41;6179507;28;96708;-62
2022/11/26 07:23:18;;;;;;;;;22.40;21.00;;;;;20.77;33.74;99546.75;6182895;28;96956;-62
2022/11/26 07:26:22;;;;;;;;;24.25;23.00;;;;;20.15;34.40;99557.81;6184919;28;96524;-63
2022/11/26 07:29:26;;;;;;;;;23.00;22.00;;;;;19.12;35.63;99562.88;6185429;28;96785;-63
2022/11/26 07:32:29;;;;;;;;;24.00;22.20;;;;;18.07;37.63;99561.50;6186572;28;96342;-63
2022/11/26 07:35:38;;;;;;;;;27.25;23.50;;;;;17.15;38.93;99569.41;6194491;28;97305;-63
2022/11/26 07:38:42;;;;;;;;;23.60;21.40;;;;;16.47;40.30;99559.47;6189906;28;97789;-63
2022/11/26 07:41:45;;;;;;;;;25.60;23.20;;;;;16.01;40.64;99563.19;6174272;28;98301;-63
2022/11/26 07:44:49;;;;;;;;;27.00;25.00;;;;;15.52;41.66;99561.03;6188253;28;96390;-63
2022/11/26 07:47:52;;;;;;;;;30.00;27.00;;;;;15.12;42.57;99561.69;6198324;28;96512;-63
2022/11/26 07:50:56;;;;;;;;;32.80;30.40;;;;;14.42;43.87;99557.97;6184275;28;96850;-63
2022/11/26 07:54:05;;;;;;;;;36.00;32.60;;;;;13.91;45.27;99563.84;6183375;28;98337;-63
2022/11/26 07:57:08;;;;;;;;;40.00;33.00;;;;;13.55;46.08;99564.66;6182668;28;96409;-63
2022/11/26 08:00:12;;;;;;;;;34.25;30.25;;;;;13.19;47.52;99575.44;6179045;28;96661;-63
2022/11/26 08:03:16;;;;;;;;;31.40;30.00;;;;;12.84;48.67;99570.47;6176758;28;97153;-63
2022/11/26 08:06:20;;;;;;;;;31.40;30.00;;;;;12.67;49.17;99577.44;6173891;28;96984;-63
2022/11/26 08:09:26;;;;;;;;;38.80;33.40;;;;;12.53;49.62;99584.81;6188370;28;96596;-63
2022/11/26 08:12:30;;;;;;;;;34.80;32.00;;;;;12.45;50.07;99585.09;6188073;28;96435;-63
2022/11/26 08:15:34;;;;;;;;;32.40;30.00;;;;;12.18;50.91;99588.13;6187941;28;96649;-63
2022/11/26 08:18:37;;;;;;;;;41.33;36.00;;;;;12.02;51.13;99592.97;6187382;28;97176;-63
2022/11/26 08:21:41;;;;;;;;;44.20;35.40;;;;;11.77;51.68;99602.84;6163872;28;97462;-63
2022/11/26 08:24:46;;;;;;;;;45.00;38.00;;;;;11.69;52.48;99605.72;6178699;28;96656;-63
2022/11/26 08:27:49;;;;;;;;;45.00;37.00;;;;;11.66;52.94;99604.28;6151677;28;96922;-63
2022/11/26 08:31:01;;;;;;;;;49.00;40.00;;;;;11.49;53.54;99599.53;6170011;28;96654;-63
2022/11/26 08:34:04;;;;;;;;;49.50;40.50;;;;;11.39;54.37;99612.63;6169938;28;98932;-62
2022/11/26 08:37:07;;;;;;;;;43.40;36.60;;;;;11.29;54.75;99605.78;6193222;28;96446;-62
2022/11/26 08:40:13;;;;;;;;;47.00;39.00;;;;;11.18;55.64;99611.00;6184491;28;96888;-62
2022/11/26 08:43:16;;;;;;;;;47.25;39.00;;;;;11.11;55.95;99616.38;6182852;28;96686;-62
2022/11/26 08:46:21;;;;;;;;;49.40;41.40;;;;;11.20;55.89;99612.44;6168216;28;96747;-62
2022/11/26 08:49:24;;;;;;;;;45.00;36.75;;;;;11.15;56.29;99604.13;6187311;28;96751;-63
2022/11/26 08:52:28;;;;;;;;;50.00;40.00;;;;;11.15;56.44;99616.78;6186084;28;97192;-63
2022/11/26 08:55:33;;;;;;;;;43.20;36.20;;;;;11.15;56.66;99614.91;6185924;28;96460;-62
2022/11/26 08:58:56;;;;;;;;;49.00;40.00;;;;;11.19;56.80;99626.94;6190656;28;96361;-62
2022/11/26 09:01:59;;;;;;;;;50.00;41.00;;;;;11.17;57.15;99628.22;6173306;28;96405;-62
2022/11/26 09:05:02;;;;;;;;;50.00;42.00;;;;;11.09;57.66;99631.13;6163522;28;97119;-63
2022/11/26 09:08:06;;;;;;;;;50.60;42.00;;;;;11.16;57.54;99637.34;6172447;28;98322;-62
2022/11/26 09:11:10;;;;;;;;;52.75;41.50;;;;;11.22;57.53;99628.44;6168720;28;96482;-63
2022/11/26 09:14:15;;;;;;;;;50.60;41.20;;;;;11.39;57.33;99645.00;6159785;28;96841;-61
2022/11/26 09:17:19;;;;;;;;;52.00;44.00;;;;;11.47;57.19;99642.97;6169006;28;96455;-63
2022/11/26 09:20:22;;;;;;;;;45.60;38.60;;;;;11.50;57.21;99650.63;6168763;28;96885;-62
2022/11/26 09:23:26;;;;;;;;;53.00;43.60;;;;;11.56;57.10;99647.09;6173148;28;97535;-62
2022/11/26 09:26:32;;;;;;;;;52.25;43.25;;;;;11.56;57.33;99647.09;6165114;28;96958;-62
2022/11/26 09:29:36;;;;;;;;;52.80;44.00;;;;;11.55;57.41;99652.69;6165766;28;96703;-62
2022/11/26 09:32:39;;;;;;;;;52.40;43.00;;;;;11.62;57.51;99662.47;6166671;28;97234;-62
2022/11/26 09:35:42;;;;;;;;;53.00;42.40;;;;;11.61;58.02;99652.69;6173875;28;96627;-62
2022/11/26 09:38:46;;;;;;;;;49.00;40.00;;;;;11.73;57.55;99651.03;6163793;28;97159;-62
2022/11/26 09:41:59;;;;;;;;;56.00;45.20;;;;;11.70;57.79;99659.53;6160531;28;97038;-62
2022/11/26 09:45:11;;;;;;;;;49.40;39.20;;;;;11.81;57.82;99649.16;6163529;28;96800;-62
2022/11/26 09:48:19;;;;;;;;;54.00;44.60;;;;;11.68;57.82;99650.81;6164145;28;96610;-62
2022/11/26 09:51:23;;;;;;;;;54.50;44.50;;;;;11.67;58.09;99659.97;6170018;28;98554;-62
2022/11/26 09:54:29;;;;;;;;;53.00;43.00;;;;;11.68;58.29;99649.97;6176556;28;96352;-62
2022/11/26 09:57:41;;;;;;;;;57.00;46.00;;;;;11.61;58.62;99657.28;6185654;28;96545;-63
2022/11/26 10:00:47;;;;;;;;;57.00;47.00;;;;;11.59;58.86;99646.66;6183558;28;96881;-62
2022/11/26 10:03:51;;;;;;;;;59.20;46.00;;;;;11.53;59.07;99647.50;6184303;28;96701;-62
2022/11/26 10:07:05;;;;;;;;;57.00;46.00;;;;;11.52;59.22;99648.56;6176429;28;96364;-63
2022/11/26 10:10:18;;;;;;;;;59.60;46.00;;;;;11.57;59.62;99650.63;6181988;28;96458;-62
2022/11/26 10:13:31;;;;;;;;;60.00;47.60;;;;;11.59;59.60;99654.78;6178727;28;97266;-62
2022/11/26 10:16:41;;;;;;;;;61.00;48.00;;;;;11.59;59.39;99651.22;6184098;28;96646;-61
2022/11/26 10:20:00;;;;;;;;;58.80;47.00;;;;;11.59;59.48;99653.94;6179878;28;96878;-62
2022/11/26 10:23:11;;;;;;;;;58.25;47.00;;;;;11.61;59.66;99650.00;6175036;28;96916;-63
2022/11/26 10:26:17;;;;;;;;;60.20;48.00;;;;;11.59;59.73;99656.63;6180827;28;96499;-62
2022/11/26 10:29:27;;;;;;;;;54.00;44.25;;;;;11.52;60.18;99653.97;6179286;28;96527;-63
2022/11/26 10:32:37;;;;;;;;;56.00;45.00;;;;;11.53;60.18;99652.91;6171027;28;96447;-63
2022/11/26 10:35:42;;;;;;;;;61.00;48.40;;;;;11.60;60.53;99652.91;6181646;28;96462;-62
2022/11/26 10:38:46;;;;;;;;;60.00;48.00;;;;;11.63;60.19;99655.19;6187329;28;96721;-63
2022/11/26 10:41:49;;;;;;;;;62.40;50.00;;;;;11.53;60.58;99649.41;6186493;28;96347;-63
2022/11/26 10:44:54;;;;;;;;;61.60;48.00;;;;;11.59;60.41;99662.03;6166484;28;96864;-62
2022/11/26 10:48:15;;;;;;;;;57.00;45.80;;;;;11.61;60.98;99654.56;6181217;28;96994;-61
2022/11/26 10:51:29;;;;;;;;;59.40;47.40;;;;;11.63;61.07;99656.00;6182279;28;97713;-62
2022/11/26 10:54:35;;;;;;;;;57.00;46.00;;;;;11.64;60.96;99638.75;6188249;28;96444;-61
2022/11/26 10:57:46;;;;;;;;;56.00;45.00;;;;;11.87;60.86;99656.44;6185001;28;96560;-63
2022/11/26 11:00:59;;;;;;;;;55.80;44.80;;;;;11.84;60.66;99654.97;6188340;28;96823;-63
2022/11/26 11:04:09;;;;;;;;;58.50;48.00;;;;;11.96;60.53;99655.16;6188046;28;96282;-62
2022/11/26 11:07:30;;;;;;;;;58.00;46.60;;;;;12.02;60.87;99662.44;6183265;28;96461;-62
2022/11/26 11:10:34;;;;;;;;;53.20;44.00;;;;;12.05;60.66;99660.13;6165989;28;97638;-62
2022/11/26 11:13:42;;;;;;;;;58.00;46.00;;;;;12.11;60.63;99658.44;6170605;28;96753;-62
2022/11/26 11:16:47;;;;;;;;;51.50;41.50;;;;;12.13;60.72;99656.34;6189873;28;96780;-63
2022/11/26 11:19:51;;;;;;;;;51.50;42.50;;;;;12.15;60.79;99656.97;6187262;28;96418;-61
2022/11/26 11:23:07;;;;;;;;;53.40;42.00;;;;;12.20;61.06;99648.22;6189800;28;96907;-63
2022/11/26 11:26:17;;;;;;;;;56.80;44.40;;;;;12.16;61.29;99655.94;6168791;28;96454;-64
2022/11/26 11:29:31;;;;;;;;;54.80;44.00;;;;;12.10;61.36;99654.09;6187038;28;96400;-62
2022/11/26 11:32:38;;;;;;;;;57.00;46.00;;;;;12.06;61.72;99650.97;6165700;28;96897;-62
2022/11/26 11:35:42;;;;;;;;;54.60;44.00;;;;;12.08;61.76;99653.44;6189704;28;96308;-61
2022/11/26 11:38:48;;;;;;;;;54.67;45.00;;;;;12.00;62.38;99651.00;6189418;28;96997;-61
2022/11/26 11:41:51;;;;;;;;;51.80;41.40;;;;;12.03;62.53;99659.50;6156410;28;96538;-61
2022/11/26 11:44:57;;;;;;;;;57.60;46.00;;;;;12.05;62.68;99656.59;6166801;28;96491;-62
2022/11/26 11:48:16;;;;;;;;;55.25;45.00;;;;;12.07;63.11;99662.63;6170503;28;97035;-63
2022/11/26 11:51:30;;;;;;;;;57.00;46.00;;;;;12.12;62.42;99662.78;6170554;28;97264;-61
2022/11/26 11:54:46;;;;;;;;;56.40;46.00;;;;;12.04;62.75;99663.88;6163871;28;96845;-61
2022/11/26 11:58:06;;;;;;;;;53.40;44.00;;;;;12.05;62.80;99668.22;6173380;28;96716;-61
2022/11/26 12:01:23;;;;;;;;;56.00;44.80;;;;;12.05;63.11;99662.00;6174444;28;97114;-61
2022/11/26 12:04:47;;;;;;;;;55.80;44.60;;;;;12.11;62.87;99664.69;6177754;28;97045;-62
2022/11/26 12:07:58;;;;;;;;;56.00;45.20;;;;;12.13;63.12;99664.47;6183165;28;96592;-63
2022/11/26 12:11:22;;;;;;;;;55.80;45.40;;;;;12.13;63.40;99664.47;6182710;28;96375;-63
2022/11/26 12:14:30;;;;;;;;;53.60;43.40;;;;;12.15;63.56;99660.50;6183542;28;96415;-63
2022/11/26 12:17:38;;;;;;;;;53.25;44.00;;;;;12.20;63.56;99662.56;6175670;28;97494;-64
2022/11/26 12:20:48;;;;;;;;;55.60;45.60;;;;;12.23;63.84;99664.00;6164463;28;96686;-63
2022/11/26 12:23:57;;;;;;;;;54.40;44.00;;;;;12.26;63.64;99663.59;6179607;28;96581;-63
2022/11/26 12:27:06;;;;;;;;;53.00;42.60;;;;;12.25;64.17;99659.22;6176073;28;96543;-64
2022/11/26 12:30:15;;;;;;;;;54.60;44.60;;;;;12.21;64.21;99663.41;6168902;28;97122;-63
2022/11/26 12:33:23;;;;;;;;;54.80;43.60;;;;;12.13;64.62;99665.28;6157908;28;96770;-63
2022/11/26 12:36:35;;;;;;;;;54.80;44.00;;;;;12.06;64.97;99664.50;6182040;28;96540;-63
2022/11/26 12:39:44;;;;;;;;;53.60;42.80;;;;;12.10;64.93;99665.72;6178096;28;96472;-63
2022/11/26 12:43:01;;;;;;;;;50.25;42.00;;;;;12.11;65.14;99663.84;6181263;28;97698;-63
2022/11/26 12:46:08;;;;;;;;;53.00;43.00;;;;;12.04;65.69;99663.03;6175979;28;96697;-64
2022/11/26 12:49:22;;;;;;;;;51.60;42.00;;;;;12.03;65.91;99670.31;6166991;28;96525;-63
2022/11/26 12:52:38;;;;;;;;;50.80;40.80;;;;;11.98;66.03;99662.00;6172099;28;96439;-63
2022/11/26 12:55:47;;;;;;;;;51.80;42.20;;;;;12.02;66.08;99651.63;6173936;28;96596;-63
2022/11/26 12:59:01;;;;;;;;;47.80;39.40;;;;;12.01;66.07;99660.75;6168759;28;96384;-63
2022/11/26 13:02:19;;;;;;;;;49.40;39.60;;;;;12.02;66.17;99655.13;6168466;28;96514;-63
2022/11/26 13:05:34;;;;;;;;;50.00;42.00;;;;;12.08;65.96;99667.78;6177530;28;96672;-63
2022/11/26 13:08:50;;;;;;;;;45.00;37.60;;;;;12.13;65.75;99667.16;6169348;28;97559;-62
2022/11/26 13:12:04;;;;;;;;;46.75;37.75;;;;;12.13;65.72;99668.00;6168542;28;97552;-62
2022/11/26 13:15:18;;;;;;;;;44.40;36.40;;;;;12.11;65.57;99667.41;6167638;28;97165;-64
2022/11/26 13:18:30;;;;;;;;;45.40;36.80;;;;;12.06;65.51;99671.78;6166647;28;97286;-62
2022/11/26 13:21:52;;;;;;;;;41.80;35.40;;;;;12.07;65.68;99673.44;6175087;28;96701;-64
2022/11/26 13:25:17;;;;;;;;;38.25;33.00;;;;;12.11;65.56;99680.91;6169282;28;98438;-64
2022/11/26 13:28:38;;;;;;;;;38.50;33.50;;;;;11.99;65.97;99681.75;6172874;28;96354;-63
2022/11/26 13:32:01;;;;;;;;;39.00;35.00;;;;;12.04;65.82;99673.84;6175082;28;96672;-63
2022/11/26 13:35:24;;;;;;;;;42.80;36.00;;;;;12.09;65.86;99688.38;6181671;28;96516;-63
2022/11/26 13:38:40;;;;;;;;;42.00;35.75;;;;;12.11;65.50;99683.63;6175652;28;97955;-64
2022/11/26 13:42:08;;;;;;;;;46.20;39.00;;;;;12.16;65.36;99680.28;6172490;28;96727;-64
2022/11/26 13:45:33;;;;;;;;;38.00;33.50;;;;;12.19;65.20;99682.53;6177972;28;96456;-63
2022/11/26 13:48:45;;;;;;;;;34.00;30.40;;;;;12.02;65.42;99695.66;6171808;28;98122;-63
2022/11/26 13:51:54;;;;;;;;;38.80;34.40;;;;;12.12;65.49;99685.25;6179633;28;97084;-63
2022/11/26 13:55:02;;;;;;;;;42.20;34.00;;;;;12.12;65.61;99684.41;6175066;28;96923;-63
2022/11/26 13:58:17;;;;;;;;;31.20;30.00;;;;;12.02;65.78;99682.16;6168844;28;96763;-63
2022/11/26 14:01:35;;;;;;;;;41.00;35.20;;;;;11.97;66.37;99686.56;6186621;28;96541;-63
2022/11/26 14:04:52;;;;;;;;;36.00;32.00;;;;;11.92;66.98;99689.91;6184265;28;96302;-63
2022/11/26 14:08:36;;;;;;;;;34.00;31.20;;;;;11.95;66.81;99689.47;6172086;28;96316;-63
2022/11/26 14:11:55;;;;;;;;;42.60;36.60;;;;;11.90;67.37;99688.44;6162847;28;96393;-63
2022/11/26 14:15:00;;;;;;;;;34.60;31.60;;;;;11.88;67.38;99695.91;6171302;28;96470;-62
2022/11/26 14:18:04;;;;;;;;;40.00;33.25;;;;;11.80;67.96;99694.25;6174808;28;97294;-62
2022/11/26 14:21:13;;;;;;;;;38.25;33.00;;;;;11.78;67.83;99693.63;6172787;28;96715;-62